This is the latest recevied weather packets stored in our database for station/object WX7FGZ-6. If no packets are shown the sender has not sent any weather packets the latest 10 day(s).
| Time | Temp. | Humidity | Pressure | Rain* | Wind** | Luminosity | Snow |
|---|---|---|---|---|---|---|---|
| 1777332503 | -0.56° C | 78% | 1014.2 hPa | 0 mm | - | - | - |
| 1777332471 | -0.56° C | 78% | 1014.2 hPa | 0 mm | - | - | - |
| 1777332172 | -0.56° C | 78% | 1014.3 hPa | 0 mm | - | - | - |
| 1777331871 | -0.56° C | 80% | 1014.1 hPa | 0 mm | - | - | - |
| 1777331537 | -1.11° C | 79% | 1014.1 hPa | 0 mm | - | - | - |
| 1777331374 | -1.11° C | 79% | 1014.1 hPa | 0 mm | - | - | - |
| 1777331341 | -1.11° C | 79% | 1014.1 hPa | 0 mm | - | - | - |
| 1777331041 | -0.56° C | 81% | 1014.1 hPa | 0 mm | - | - | - |
| 1777330914 | -0.56° C | 81% | 1013.9 hPa | 0 mm | - | - | - |
| 1777330741 | -0.56° C | 81% | 1013.9 hPa | 0 mm | - | - | - |
| 1777330441 | -1.11° C | 82% | 1014 hPa | 0 mm | - | - | - |
| 1777330141 | -1.11° C | 82% | 1014.1 hPa | 0 mm | - | - | - |
| 1777329840 | -0.56° C | 85% | 1013.9 hPa | 0 mm | - | - | - |
| 1777329541 | -1.11° C | 84% | 1013.8 hPa | 0 mm | - | - | - |
| 1777329240 | -1.11° C | 84% | 1013.7 hPa | 0 mm | - | - | - |
| 1777328940 | -0.56° C | 88% | 1013.7 hPa | 0 mm | - | - | - |
| 1777328642 | -1.11° C | 88% | 1013.7 hPa | 0 mm | - | - | - |
| 1777328040 | -1.67° C | 89% | 1013.6 hPa | 0 mm | - | - | - |
| 1777327740 | -1.67° C | 89% | 1013.9 hPa | 0 mm | - | - | - |
| 1777327440 | -1.67° C | 89% | 1013.9 hPa | 0 mm | - | - | - |
| 1777327140 | -1.67° C | 92% | 1013.5 hPa | 0 mm | - | - | - |
| 1777326774 | -2.22° C | 90% | 1014 hPa | 0.25 mm | - | - | - |
| 1777326681 | -2.22° C | 91% | 1014.2 hPa | 0.25 mm | - | - | - |
| 1777326474 | -2.22° C | 91% | 1014.2 hPa | 0.25 mm | - | - | - |
| 1777326361 | -1.67° C | 91% | 1014.5 hPa | 0.25 mm | - | - | - |
* Rain latest hour (hover to see other rain measurements)
** Current wind speed in m/s (hover to see current wind gust speed)